Time;durP1;ratioP1;P1;durP2;ratioP2;P2;SDS_P1;SDS_P2;PMS_P1;PMS_P2;Temp;Humidity;BMP_temperature;BMP_pressure;BME280_temperature;BME280_humidity;BME280_pressure;Samples;Min_cycle;Max_cycle;Signal;HPM_P1;HPM_P2
2022/10/19 00:00:19;;;;;;;52.28;37.90;;;;;;;14.75;100.00;100442.72;5085562;28;20028;-80
2022/10/19 00:02:44;;;;;;;55.90;36.97;;;;;;;14.72;100.00;100443.88;5090744;28;20154;-80
2022/10/19 00:05:10;;;;;;;57.20;36.80;;;;;;;14.58;100.00;100446.16;5084200;28;20439;-80
2022/10/19 00:07:35;;;;;;;54.40;36.60;;;;;;;14.59;100.00;100447.84;5089336;28;20047;-80
2022/10/19 00:10:01;;;;;;;57.17;37.35;;;;;;;14.63;100.00;100446.56;5088055;28;20020;-79
2022/10/19 00:12:27;;;;;;;54.35;37.97;;;;;;;14.42;100.00;100445.97;5085984;28;20372;-78
2022/10/19 00:14:52;;;;;;;54.97;37.42;;;;;;;14.37;100.00;100446.41;5086182;28;20032;-79
2022/10/19 00:17:18;;;;;;;53.42;36.33;;;;;;;14.40;100.00;100450.56;5085857;28;20047;-80
2022/10/19 00:19:43;;;;;;;54.05;37.45;;;;;;;14.41;100.00;100446.94;5089796;28;20021;-80
2022/10/19 00:22:08;;;;;;;54.97;35.25;;;;;;;14.49;100.00;100444.41;5084319;28;20903;-79
2022/10/19 00:24:34;;;;;;;55.15;36.95;;;;;;;14.49;100.00;100444.41;5086646;28;20028;-80
2022/10/19 00:26:59;;;;;;;53.75;37.58;;;;;;;14.54;100.00;100440.31;5082586;28;20144;-80
2022/10/19 00:29:25;;;;;;;54.42;36.45;;;;;;;14.35;100.00;100435.88;5088279;28;20043;-80
2022/10/19 00:31:51;;;;;;;54.58;36.17;;;;;;;14.27;100.00;100433.13;5069926;28;20111;-80
2022/10/19 00:34:17;;;;;;;51.50;35.55;;;;;;;14.14;100.00;100437.91;5070543;28;20384;-80
2022/10/19 00:36:42;;;;;;;60.17;39.63;;;;;;;14.02;100.00;100435.59;5087944;28;20068;-80
2022/10/19 00:39:13;;;;;;;56.00;35.33;;;;;;;13.96;100.00;100436.97;5086759;28;20169;-80
2022/10/19 00:41:39;;;;;;;55.03;37.88;;;;;;;13.92;100.00;100438.25;5078601;28;20090;-80
2022/10/19 00:44:25;;;;;;;52.58;38.22;;;;;;;13.93;100.00;100438.09;5080358;28;20636;-79
2022/10/19 00:46:52;;;;;;;55.88;37.38;;;;;;;13.99;100.00;100426.06;5085671;28;20484;-80
2022/10/19 00:49:30;;;;;;;51.78;35.70;;;;;;;13.95;100.00;100437.97;5087638;28;20483;-80
2022/10/19 00:52:17;;;;;;;48.67;34.13;;;;;;;13.90;100.00;100434.91;5083921;28;20032;-80
2022/10/19 00:54:44;;;;;;;48.40;34.97;;;;;;;13.88;100.00;100432.38;5070219;28;20161;-80
2022/10/19 00:57:11;;;;;;;48.22;35.00;;;;;;;13.80;100.00;100434.91;5077956;28;20032;-80
2022/10/19 00:59:38;;;;;;;52.95;37.03;;;;;;;13.84;100.00;100433.63;5088625;28;20039;-80
2022/10/19 01:02:05;;;;;;;53.47;37.33;;;;;;;13.88;100.00;100420.94;5060228;28;20468;-80
2022/10/19 01:04:34;;;;;;;54.15;37.40;;;;;;;13.86;100.00;100428.19;5081660;28;20024;-80
2022/10/19 01:07:02;;;;;;;58.08;39.45;;;;;;;13.79;100.00;100421.78;5084012;28;20472;-80
2022/10/19 01:09:27;;;;;;;52.17;38.10;;;;;;;13.75;100.00;100421.25;5085570;28;20028;-80
2022/10/19 01:11:53;;;;;;;56.35;37.10;;;;;;;13.82;100.00;100422.34;5088938;28;20116;-79
2022/10/19 01:14:36;;;;;;;56.20;37.60;;;;;;;13.86;100.00;100418.41;5087173;28;20860;-80
2022/10/19 01:17:37;;;;;;;52.90;38.17;;;;;;;13.87;100.00;100419.25;5066649;28;20040;-81
2022/10/19 01:20:44;;;;;;;52.55;37.70;;;;;;;13.83;100.00;100417.88;5086547;28;20035;-78
2022/10/19 01:23:27;;;;;;;62.15;35.85;;;;;;;13.76;100.00;100416.78;5075200;28;20063;-79
2022/10/19 01:26:01;;;;;;;49.35;35.92;;;;;;;13.72;100.00;100410.09;5083390;28;20031;-79
2022/10/19 01:28:34;;;;;;;53.75;37.35;;;;;;;13.73;100.00;100401.13;5088640;28;20028;-79
2022/10/19 01:31:37;;;;;;;52.42;37.03;;;;;;;13.74;100.00;100414.25;5081045;28;20048;-79
2022/10/19 01:34:18;;;;;;;55.05;36.85;;;;;;;13.71;100.00;100414.56;5084120;28;20028;-78
2022/10/19 01:36:59;;;;;;;;;;;;;;;13.70;100.00;100412.88;5085327;28;20028;-79
2022/10/19 01:39:46;;;;;;;57.05;39.75;;;;;;;13.62;100.00;100411.88;5085370;28;19935;-79
2022/10/19 01:42:20;;;;;;;60.03;39.33;;;;;;;13.69;100.00;100407.69;5087169;28;20105;-78
2022/10/19 01:44:53;;;;;;;53.03;36.67;;;;;;;13.70;100.00;100406.72;5089270;28;20032;-79
2022/10/19 01:47:26;;;;;;;58.17;38.10;;;;;;;13.76;100.00;100414.13;5086195;28;20373;-79
2022/10/19 01:50:04;;;;;;;50.17;35.40;;;;;;;13.73;100.00;100406.44;5086387;28;20427;-79
2022/10/19 01:52:31;;;;;;;46.65;36.22;;;;;;;13.72;100.00;100404.78;5075490;28;20036;-79
2022/10/19 01:54:59;;;;;;;48.53;34.83;;;;;;;13.71;100.00;100409.25;5086768;28;20119;-80
2022/10/19 01:57:29;;;;;;;53.63;37.10;;;;;;;13.60;100.00;100411.22;5084713;28;20020;-79
2022/10/19 01:59:56;;;;;;;55.47;36.57;;;;;;;13.60;100.00;100405.91;5066786;28;20043;-79
2022/10/19 02:02:25;;;;;;;52.72;36.60;;;;;;;13.61;100.00;100402.28;5062828;28;20116;-79
2022/10/19 02:04:55;;;;;;;53.53;37.10;;;;;;;13.58;100.00;100400.75;5083737;28;20052;-79
2022/10/19 02:07:22;;;;;;;49.25;36.20;;;;;;;13.52;100.00;100403.97;5081487;28;20032;-80
2022/10/19 02:09:48;;;;;;;54.78;37.75;;;;;;;13.61;100.00;100399.63;5084950;28;20539;-81
2022/10/19 02:12:14;;;;;;;56.42;37.60;;;;;;;13.60;100.00;100395.31;5064505;28;20064;-80
2022/10/19 02:14:45;;;;;;;54.22;39.08;;;;;;;13.52;100.00;100407.44;5081462;28;20475;-79
2022/10/19 02:17:14;;;;;;;56.17;38.72;;;;;;;13.51;100.00;100392.50;5082537;28;20039;-80
2022/10/19 02:19:40;;;;;;;54.97;37.90;;;;;;;13.56;100.00;100404.50;5082840;28;20085;-80
2022/10/19 02:22:06;;;;;;;53.83;36.70;;;;;;;13.44;100.00;100396.69;5082349;28;20037;-80
2022/10/19 02:24:32;;;;;;;50.30;36.08;;;;;;;13.46;100.00;100397.41;5085427;28;20028;-80
2022/10/19 02:26:59;;;;;;;47.90;34.42;;;;;;;13.49;100.00;100396.28;5084980;28;20118;-80
2022/10/19 02:29:25;;;;;;;53.20;37.70;;;;;;;13.39;100.00;100393.63;5083469;28;20047;-79
2022/10/19 02:31:51;;;;;;;50.28;36.88;;;;;;;13.36;100.00;100393.94;5085820;28;20039;-79
2022/10/19 02:34:17;;;;;;;53.95;37.10;;;;;;;13.37;100.00;100387.63;5082460;28;20032;-79
2022/10/19 02:36:42;;;;;;;54.00;38.00;;;;;;;13.32;100.00;100387.22;5085683;28;20036;-79
2022/10/19 02:39:08;;;;;;;55.40;37.67;;;;;;;13.39;100.00;100388.34;5085607;28;20383;-79
2022/10/19 02:42:00;;;;;;;57.28;39.08;;;;;;;13.40;100.00;100390.00;5082132;28;20029;-79
2022/10/19 02:44:33;;;;;;;59.05;39.17;;;;;;;13.46;100.00;100383.31;5087638;28;20052;-80
2022/10/19 02:47:19;;;;;;;58.25;38.60;;;;;;;13.36;100.00;100377.19;5064958;28;20089;-79
2022/10/19 02:49:46;;;;;;;56.90;38.92;;;;;;;13.35;100.00;100376.34;5084861;28;20024;-80
2022/10/19 02:52:12;;;;;;;52.67;36.20;;;;;;;13.41;100.00;100374.94;5082916;28;20523;-80
2022/10/19 02:54:40;;;;;;;49.42;35.47;;;;;;;13.48;100.00;100371.59;5069216;28;20396;-80
2022/10/19 02:57:15;;;;;;;50.13;35.72;;;;;;;13.51;100.00;100371.31;5080695;28;20030;-79
2022/10/19 02:59:40;;;;;;;49.80;35.42;;;;;;;13.49;100.00;100373.25;5082801;28;20127;-80
2022/10/19 03:02:05;;;;;;;48.90;34.00;;;;;;;13.46;100.00;100368.25;5082123;28;20401;-79
2022/10/19 03:04:31;;;;;;;48.38;34.58;;;;;;;13.44;100.00;100370.19;5085557;28;20110;-80
2022/10/19 03:06:56;;;;;;;58.75;37.85;;;;;;;13.39;100.00;100361.81;5080660;28;20074;-79
2022/10/19 03:09:22;;;;;;;57.75;38.58;;;;;;;13.38;100.00;100370.75;5063461;28;20040;-79
2022/10/19 03:11:47;;;;;;;55.10;36.75;;;;;;;13.29;100.00;100365.47;5067460;28;20024;-79
2022/10/19 03:14:13;;;;;;;54.05;36.15;;;;;;;13.15;100.00;100369.38;5063837;28;20028;-79
2022/10/19 03:16:38;;;;;;;54.65;35.97;;;;;;;13.21;100.00;100363.50;5086473;28;20035;-81
2022/10/19 03:19:04;;;;;;;58.50;38.60;;;;;;;13.25;100.00;100362.28;5082675;28;20024;-79
2022/10/19 03:21:29;;;;;;;56.05;38.03;;;;;;;13.27;100.00;100357.66;5085357;28;20036;-80
2022/10/19 03:23:54;;;;;;;60.65;39.10;;;;;;;13.31;100.00;100352.91;5082748;28;20154;-80
2022/10/19 03:26:20;;;;;;;55.80;37.97;;;;;;;13.21;100.00;100352.91;5083241;28;20171;-78
2022/10/19 03:28:45;;;;;;;55.60;37.85;;;;;;;13.23;100.00;100350.97;5086624;28;20039;-79
2022/10/19 03:31:11;;;;;;;58.47;38.10;;;;;;;13.15;100.00;100347.31;5084543;28;20142;-79
2022/10/19 03:33:36;;;;;;;60.38;38.67;;;;;;;13.12;100.00;100348.47;5086202;28;20028;-79
2022/10/19 03:36:32;;;;;;;61.78;38.60;;;;;;;12.99;100.00;100342.56;5063441;28;20041;-79
2022/10/19 03:39:01;;;;;;;59.88;37.28;;;;;;;12.99;100.00;100345.22;5069450;28;20117;-80
2022/10/19 03:41:29;;;;;;;56.28;36.80;;;;;;;12.98;100.00;100340.88;5064616;28;20063;-80
2022/10/19 03:43:55;;;;;;;56.53;37.05;;;;;;;12.98;100.00;100351.47;5086769;28;20051;-80
2022/10/19 03:46:21;;;;;;;51.63;36.10;;;;;;;12.81;100.00;100357.47;5083331;28;20425;-78
2022/10/19 03:48:47;;;;;;;54.40;36.67;;;;;;;12.89;100.00;100363.75;5082528;28;20043;-81
2022/10/19 03:51:16;;;;;;;53.78;35.90;;;;;;;12.87;100.00;100365.69;5085374;28;20040;-80
2022/10/19 03:53:42;;;;;;;55.40;36.78;;;;;;;12.86;100.00;100363.19;5083246;28;20025;-80
2022/10/19 03:56:11;;;;;;;56.40;37.03;;;;;;;12.86;100.00;100368.47;5084934;28;20070;-80
2022/10/19 03:58:38;;;;;;;57.28;36.83;;;;;;;12.76;100.00;100372.94;5081698;28;20487;-80
2022/10/19 04:01:16;;;;;;;56.78;36.60;;;;;;;12.81;100.00;100365.41;5084121;28;20099;-80
2022/10/19 04:03:42;;;;;;;63.80;38.53;;;;;;;12.62;100.00;100367.03;5081426;28;20066;-82
2022/10/19 04:06:11;;;;;;;66.43;41.17;;;;;;;12.69;100.00;100360.22;5084513;28;20071;-80
2022/10/19 04:08:37;;;;;;;65.70;40.97;;;;;;;12.75;100.00;100365.94;5081515;28;20029;-80
2022/10/19 04:11:06;;;;;;;68.85;41.40;;;;;;;12.79;100.00;100362.88;5085923;28;20035;-79
2022/10/19 04:13:32;;;;;;;67.88;43.22;;;;;;;12.75;100.00;100360.66;5084238;28;20021;-79
2022/10/19 04:15:58;;;;;;;67.00;44.97;;;;;;;12.60;100.00;100357.56;5087818;28;20032;-77
2022/10/19 04:18:24;;;;;;;67.35;43.15;;;;;;;12.59;100.00;100355.91;5088299;28;20533;-79
2022/10/19 04:20:55;;;;;;;67.07;43.45;;;;;;;12.51;100.00;100353.91;5085833;28;20078;-79
2022/10/19 04:23:21;;;;;;;77.22;47.72;;;;;;;12.44;100.00;100352.78;5092361;28;20024;-79
2022/10/19 04:25:46;;;;;;;72.43;44.17;;;;;;;12.51;100.00;100353.91;5085018;28;20032;-79
2022/10/19 04:28:12;;;;;;;77.07;44.60;;;;;;;12.37;100.00;100346.34;5089484;28;20040;-80
2022/10/19 04:30:37;;;;;;;68.32;42.25;;;;;;;12.33;100.00;100350.25;5084480;28;20032;-80
2022/10/19 04:33:03;;;;;;;76.70;43.28;;;;;;;12.30;100.00;100351.38;5070221;28;20039;-80
2022/10/19 04:35:28;;;;;;;63.40;41.05;;;;;;;12.33;100.00;100352.91;5087972;28;20032;-79
2022/10/19 04:37:54;;;;;;;71.57;43.63;;;;;;;12.34;100.00;100357.22;5085880;28;20024;-79
2022/10/19 04:40:19;;;;;;;71.43;41.30;;;;;;;12.28;100.00;100357.75;5086059;28;20480;-80
2022/10/19 04:42:45;;;;;;;60.83;40.78;;;;;;;12.21;100.00;100353.97;5087984;28;20107;-79
2022/10/19 04:45:10;;;;;;;63.42;41.53;;;;;;;12.20;100.00;100355.75;5088893;28;20455;-80
2022/10/19 04:47:36;;;;;;;62.83;39.28;;;;;;;12.27;100.00;100358.72;5088089;28;20365;-80
2022/10/19 04:50:01;;;;;;;64.22;42.00;;;;;;;12.29;100.00;100349.69;5084442;28;20028;-80
2022/10/19 04:52:27;;;;;;;71.43;42.22;;;;;;;12.02;100.00;100362.66;5069220;28;20123;-80
2022/10/19 04:54:52;;;;;;;71.18;42.40;;;;;;;12.02;100.00;100361.81;5087641;28;20035;-80
2022/10/19 04:57:17;;;;;;;66.18;43.20;;;;;;;11.96;100.00;100362.38;5085494;28;20031;-82
2022/10/19 04:59:43;;;;;;;66.32;43.78;;;;;;;12.00;100.00;100363.78;5089046;28;20456;-82
2022/10/19 05:02:08;;;;;;;63.80;41.60;;;;;;;12.03;100.00;100366.13;5088956;28;20041;-82
2022/10/19 05:04:34;;;;;;;65.38;43.50;;;;;;;12.03;100.00;100364.34;5087847;28;20028;-81
2022/10/19 05:06:59;;;;;;;66.75;42.92;;;;;;;11.96;100.00;100357.09;5084614;28;20032;-81
2022/10/19 05:09:25;;;;;;;62.83;43.28;;;;;;;11.94;100.00;100364.28;5087142;28;20036;-81
2022/10/19 05:11:50;;;;;;;70.55;43.95;;;;;;;11.93;100.00;100357.31;5087912;28;20112;-81
2022/10/19 05:14:16;;;;;;;78.18;44.83;;;;;;;11.90;100.00;100358.41;5084725;28;20024;-78
2022/10/19 05:16:41;;;;;;;67.68;45.08;;;;;;;12.02;100.00;100356.53;5088150;28;20384;-81
2022/10/19 05:19:12;;;;;;;66.15;43.97;;;;;;;12.05;100.00;100357.13;5079191;28;20039;-82
2022/10/19 05:21:37;;;;;;;;;;;;;;;11.90;100.00;100353.97;5089371;28;20032;-80
2022/10/19 05:24:03;;;;;;;64.28;43.78;;;;;;;11.90;100.00;100353.13;5083678;28;19923;-82
2022/10/19 05:26:29;;;;;;;68.32;43.65;;;;;;;11.78;100.00;100354.22;5086127;28;20365;-81
2022/10/19 05:28:59;;;;;;;65.72;42.53;;;;;;;11.84;100.00;100343.91;5086590;28;20460;-80
2022/10/19 05:31:32;;;;;;;62.33;41.75;;;;;;;11.84;100.00;100343.91;5085009;28;20064;-79
2022/10/19 05:33:58;;;;;;;68.07;41.25;;;;;;;11.83;100.00;100350.19;5090157;28;20039;-77
2022/10/19 05:36:38;;;;;;;62.40;39.08;;;;;;;11.94;100.00;100351.06;5090356;28;20055;-80
2022/10/19 05:39:09;;;;;;;71.85;39.38;;;;;;;11.94;100.00;100348.44;5047175;28;20045;-78
2022/10/19 05:41:35;;;;;;;62.20;39.92;;;;;;;11.80;100.00;100342.50;5086113;28;20488;-77
2022/10/19 05:44:03;;;;;;;60.47;40.80;;;;;;;11.87;100.00;100341.03;5090081;28;20047;-76
2022/10/19 05:46:30;;;;;;;62.45;38.42;;;;;;;11.77;100.00;100347.25;5089780;28;20125;-78
2022/10/19 05:48:57;;;;;;;61.33;39.95;;;;;;;11.69;100.00;100344.38;5081902;28;20068;-77
2022/10/19 05:51:25;;;;;;;66.20;41.72;;;;;;;11.73;100.00;100337.84;5086982;28;20027;-78
2022/10/19 05:53:53;;;;;;;65.60;39.70;;;;;;;11.80;100.00;100337.22;5090548;28;20094;-77
2022/10/19 05:56:20;;;;;;;61.40;38.83;;;;;;;11.83;100.00;100347.56;5088371;28;20369;-78
2022/10/19 05:58:47;;;;;;;85.72;39.22;;;;;;;11.57;100.00;100346.25;5088378;28;20035;-78
2022/10/19 06:01:13;;;;;;;72.60;39.42;;;;;;;11.46;100.00;100348.97;5086042;28;20851;-85
2022/10/19 06:03:39;;;;;;;63.95;40.60;;;;;;;11.32;100.00;100346.63;5064324;28;20037;-77
2022/10/19 06:06:06;;;;;;;68.05;40.53;;;;;;;11.29;100.00;100341.59;5085894;28;20020;-80
2022/10/19 06:08:33;;;;;;;62.47;40.28;;;;;;;11.45;100.00;100342.00;5086468;28;20063;-82
2022/10/19 06:11:13;;;;;;;89.75;40.47;;;;;;;11.24;100.00;100343.81;5085519;28;20115;-82
2022/10/19 06:13:40;;;;;;;54.10;39.30;;;;;;;11.33;100.00;100349.16;5064540;28;20032;-80
2022/10/19 06:16:07;;;;;;;57.60;41.33;;;;;;;11.47;100.00;100340.06;5087150;28;20056;-80
2022/10/19 06:18:32;;;;;;;61.90;40.83;;;;;;;11.49;100.00;100338.13;5088254;28;20082;-81
2022/10/19 06:21:06;;;;;;;61.35;40.60;;;;;;;11.60;100.00;100345.16;5083301;28;20031;-80
2022/10/19 06:23:32;;;;;;;57.35;40.15;;;;;;;11.68;100.00;100348.81;5086526;28;20500;-81
2022/10/19 06:26:00;;;;;;;62.58;39.92;;;;;;;11.65;100.00;100349.09;5060775;28;20487;-81
2022/10/19 06:28:26;;;;;;;59.15;40.45;;;;;;;11.65;100.00;100364.94;5088649;28;20032;-82
2022/10/19 06:30:51;;;;;;;56.08;40.95;;;;;;;11.72;100.00;100360.78;5085730;28;20016;-82
2022/10/19 06:33:17;;;;;;;64.28;42.83;;;;;;;11.88;100.00;100365.66;5082934;28;20124;-82
2022/10/19 06:35:42;;;;;;;67.63;40.90;;;;;;;11.83;100.00;100357.28;5088601;28;20530;-82
2022/10/19 06:38:08;;;;;;;71.93;39.22;;;;;;;11.78;100.00;100365.59;5081267;28;20051;-82
2022/10/19 06:40:34;;;;;;;63.65;40.38;;;;;;;11.78;100.00;100365.59;5084204;28;20412;-83
2022/10/19 06:43:00;;;;;;;59.25;40.75;;;;;;;11.85;100.00;100361.47;5083896;28;20028;-81
2022/10/19 06:45:25;;;;;;;53.78;38.85;;;;;;;11.95;100.00;100360.69;5086187;28;20035;-81
2022/10/19 06:47:51;;;;;;;60.03;39.38;;;;;;;11.96;100.00;100363.19;5084432;28;20074;-81
2022/10/19 06:50:17;;;;;;;50.50;37.35;;;;;;;11.96;100.00;100362.38;5083479;28;20044;-82
2022/10/19 06:52:42;;;;;;;51.08;37.28;;;;;;;11.87;100.00;100370.13;5085307;28;20136;-80
2022/10/19 06:55:08;;;;;;;57.55;36.83;;;;;;;11.82;100.00;100374.97;5082941;28;20039;-83
2022/10/19 06:57:34;;;;;;;53.35;39.58;;;;;;;11.82;100.00;100374.97;5084010;28;20469;-81
2022/10/19 06:59:59;;;;;;;53.88;38.22;;;;;;;11.99;100.00;100384.09;5083588;28;20170;-81
2022/10/19 07:02:25;;;;;;;57.00;38.78;;;;;;;11.99;100.00;100393.84;5084283;28;20392;-82
2022/10/19 07:04:50;;;;;;;53.30;38.35;;;;;;;11.98;100.00;100392.16;5049010;28;20078;-82
2022/10/19 07:07:16;;;;;;;75.03;38.42;;;;;;;11.75;100.00;100387.03;5080880;28;20028;-80
2022/10/19 07:09:41;;;;;;;51.03;37.85;;;;;;;11.78;100.00;100392.03;5085225;28;20035;-82
2022/10/19 07:12:09;;;;;;;57.38;38.88;;;;;;;11.94;100.00;100396.03;5065158;28;20528;-82
2022/10/19 07:14:38;;;;;;;56.03;40.42;;;;;;;12.04;100.00;100392.47;5087948;28;20028;-81
2022/10/19 07:17:07;;;;;;;57.08;40.47;;;;;;;12.19;100.00;100385.03;5064569;28;20499;-82
2022/10/19 07:19:32;;;;;;;51.53;37.88;;;;;;;12.34;100.00;100390.78;5086461;28;20107;-81
2022/10/19 07:21:58;;;;;;;47.15;36.78;;;;;;;12.53;100.00;100393.50;5050202;28;20120;-83
2022/10/19 07:24:24;;;;;;;54.97;39.47;;;;;;;12.62;100.00;100392.69;5084739;28;20496;-83
2022/10/19 07:26:49;;;;;;;49.58;36.83;;;;;;;12.69;100.00;100394.66;5089030;28;20028;-81
2022/10/19 07:29:15;;;;;;;48.33;36.28;;;;;;;12.83;100.00;100389.94;5086369;28;20082;-83
2022/10/19 07:31:40;;;;;;;49.78;36.30;;;;;;;12.81;100.00;100394.53;5087755;28;20028;-81
2022/10/19 07:34:09;;;;;;;50.63;36.28;;;;;;;13.00;100.00;100398.06;5067400;28;20119;-82
2022/10/19 07:36:35;;;;;;;49.70;35.83;;;;;;;13.08;100.00;100394.69;5085390;28;20032;-79
2022/10/19 07:39:04;;;;;;;44.88;35.25;;;;;;;13.18;100.00;100395.59;5084636;28;20125;-80
2022/10/19 07:41:30;;;;;;;49.55;37.22;;;;;;;13.23;100.00;100403.97;5082573;28;20094;-80
2022/10/19 07:43:56;;;;;;;48.78;35.80;;;;;;;13.32;100.00;100396.97;5065575;28;20052;-80
2022/10/19 07:46:34;;;;;;;48.40;36.95;;;;;;;13.36;100.00;100399.22;5087858;28;20036;-81
2022/10/19 07:49:00;;;;;;;47.95;34.72;;;;;;;13.41;100.00;100397.00;5082057;28;20051;-81
2022/10/19 07:51:26;;;;;;;47.78;36.58;;;;;;;13.42;100.00;100401.31;5083927;28;20050;-80
2022/10/19 07:53:52;;;;;;;44.45;35.33;;;;;;;13.57;100.00;100395.56;5088006;28;20024;-80
2022/10/19 07:56:21;;;;;;;50.83;35.60;;;;;;;13.57;100.00;100398.22;5092702;28;20499;-82
2022/10/19 07:58:48;;;;;;;48.53;36.13;;;;;;;13.66;100.00;100394.75;5088578;28;20058;-81
2022/10/19 08:01:16;;;;;;;46.60;35.85;;;;;;;13.71;100.00;100403.09;5090197;28;20036;-81
2022/10/19 08:03:43;;;;;;;51.25;37.75;;;;;;;13.83;100.00;100394.00;5077758;28;20039;-81
2022/10/19 08:06:12;;;;;;;49.45;37.30;;;;;;;13.97;100.00;100392.69;5091491;28;20039;-81
2022/10/19 08:08:38;;;;;;;43.63;34.72;;;;;;;14.10;100.00;100399.38;5085675;28;20039;-78
2022/10/19 08:11:15;;;;;;;46.83;35.25;;;;;;;14.20;100.00;100400.16;5086871;28;20117;-81
2022/10/19 08:13:40;;;;;;;45.42;34.00;;;;;;;14.30;100.00;100400.97;5091006;28;20060;-81
2022/10/19 08:16:23;;;;;;;43.83;32.28;;;;;;;14.40;100.00;100405.44;5089966;28;20449;-83
2022/10/19 08:18:50;;;;;;;43.45;33.13;;;;;;;14.52;100.00;100409.56;5089563;28;20040;-82
2022/10/19 08:21:16;;;;;;;41.70;33.63;;;;;;;14.61;100.00;100403.34;5079745;28;20495;-83
2022/10/19 08:23:42;;;;;;;43.47;33.20;;;;;;;14.66;100.00;100412.59;5087550;28;20028;-81
2022/10/19 08:26:08;;;;;;;43.67;33.45;;;;;;;14.66;100.00;100409.09;5088346;28;20039;-80
2022/10/19 08:28:33;;;;;;;46.30;34.10;;;;;;;14.67;100.00;100400.09;5087607;28;20036;-82
2022/10/19 08:30:58;;;;;;;43.70;33.53;;;;;;;14.71;100.00;100404.16;5088819;28;20051;-81
2022/10/19 08:33:25;;;;;;;44.38;33.17;;;;;;;14.82;100.00;100406.63;5705396;22;20053;-83
2022/10/19 08:35:55;;;;;;;43.95;33.40;;;;;;;14.93;100.00;100409.06;4990622;28;20083;-79
2022/10/19 08:38:20;;;;;;;38.45;31.65;;;;;;;15.07;100.00;100405.06;5011941;28;20425;-80
2022/10/19 08:40:46;;;;;;;44.40;34.30;;;;;;;15.15;100.00;100403.28;5020219;28;20026;-82
2022/10/19 08:43:11;;;;;;;40.42;31.77;;;;;;;15.24;100.00;100398.06;5022445;28;20033;-79
2022/10/19 08:45:40;;;;;;;40.63;31.55;;;;;;;15.31;100.00;100396.47;5020520;28;20025;-82
2022/10/19 08:48:27;;;;;;;42.42;32.25;;;;;;;15.37;100.00;100401.19;5017963;28;20038;-80
2022/10/19 08:50:54;;;;;;;43.83;31.83;;;;;;;15.47;100.00;100399.28;5017626;28;20041;-79
2022/10/19 08:53:26;;;;;;;35.25;30.17;;;;;;;15.52;100.00;100394.34;5012154;28;20056;-81
2022/10/19 08:56:14;;;;;;;40.38;30.88;;;;;;;15.54;100.00;100397.69;5018118;28;20046;-81
2022/10/19 08:59:16;;;;;;;36.50;29.27;;;;;;;15.62;100.00;100400.41;5012930;28;20040;-80
2022/10/19 09:01:53;;;;;;;42.28;30.90;;;;;;;15.70;100.00;100397.81;5013699;28;20038;-81
2022/10/19 09:04:22;;;;;;;40.28;31.15;;;;;;;15.77;100.00;100408.69;5013624;28;20026;-80
2022/10/19 09:07:05;;;;;;;42.05;32.42;;;;;;;15.79;100.00;100402.19;4996052;28;20037;-80
2022/10/19 09:09:32;;;;;;;38.05;31.13;;;;;;;15.89;100.00;100396.78;4995872;28;20172;-80
2022/10/19 09:12:04;;;;;;;37.53;30.67;;;;;;;15.95;100.00;100402.31;4997277;28;20025;-80
2022/10/19 09:14:35;;;;;;;39.70;30.52;;;;;;;16.01;100.00;100394.69;4997339;28;20477;-81
2022/10/19 09:17:04;;;;;;;;;;;;;;;16.09;100.00;100397.41;5013662;28;20481;-80
2022/10/19 09:19:30;;;;;;;40.88;30.92;;;;;;;16.15;100.00;100402.94;5014965;28;19927;-79
2022/10/19 09:22:25;;;;;;;41.13;32.13;;;;;;;16.19;100.00;100393.66;5014178;28;20037;-80
2022/10/19 09:24:59;;;;;;;39.72;30.75;;;;;;;16.27;100.00;100392.84;5002716;28;20143;-81
2022/10/19 09:27:31;;;;;;;36.90;30.15;;;;;;;16.33;100.00;100395.69;5008318;28;20060;-82
2022/10/19 09:30:02;;;;;;;42.88;31.92;;;;;;;16.39;100.00;100400.38;5016090;28;20030;-82
2022/10/19 09:32:32;;;;;;;;;;;;;;;16.43;100.00;100400.94;5017866;28;20036;-82
2022/10/19 09:35:01;;;;;;;41.35;31.45;;;;;;;16.51;100.00;100405.44;5024478;28;19919;-82
2022/10/19 09:37:29;;;;;;;42.70;31.33;;;;;;;16.59;100.00;100400.16;5019983;28;20270;-82
2022/10/19 09:39:55;;;;;;;43.00;31.23;;;;;;;16.66;100.00;100402.06;5005373;28;20041;-82
2022/10/19 09:42:31;;;;;;;48.17;32.90;;;;;;;16.73;100.00;100394.22;5013372;28;20490;-82
2022/10/19 09:45:27;;;;;;;47.38;34.00;;;;;;;16.81;100.00;100404.06;5022514;28;20120;-82
2022/10/19 09:47:52;;;;;;;47.53;33.35;;;;;;;16.87;100.00;100395.44;5005724;28;20048;-82
2022/10/19 09:50:21;;;;;;;46.88;33.42;;;;;;;16.90;100.00;100392.44;4985551;28;20038;-81
2022/10/19 09:52:49;;;;;;;48.58;33.90;;;;;;;16.95;100.00;100398.13;5021322;28;20040;-83
2022/10/19 09:55:27;;;;;;;50.08;33.28;;;;;;;16.96;100.00;100391.81;5024342;28;20041;-82
2022/10/19 09:58:00;;;;;;;51.00;36.05;;;;;;;16.99;100.00;100386.97;5017856;28;20045;-84
2022/10/19 10:00:35;;;;;;;53.47;35.13;;;;;;;17.04;100.00;100379.31;5026699;28;20029;-82
2022/10/19 10:03:04;;;;;;;56.60;37.78;;;;;;;17.13;100.00;100382.84;5010683;28;20061;-83
2022/10/19 10:05:37;;;;;;;53.92;37.70;;;;;;;17.19;100.00;100376.84;5020386;28;20084;-82
2022/10/19 10:08:11;;;;;;;46.80;34.00;;;;;;;17.26;100.00;100377.81;5027132;28;20096;-83
2022/10/19 10:10:38;;;;;;;47.67;32.85;;;;;;;17.33;100.00;100378.84;5013624;28;20025;-81
2022/10/19 10:13:04;;;;;;;44.33;33.30;;;;;;;17.41;100.00;100373.50;5021724;28;20567;-85
2022/10/19 10:15:42;;;;;;;48.28;34.00;;;;;;;17.47;100.00;100380.84;5009885;28;20556;-84
2022/10/19 10:18:14;;;;;;;46.60;34.03;;;;;;;17.51;100.00;100379.50;4998746;28;20042;-83
2022/10/19 10:21:23;;;;;;;49.70;35.47;;;;;;;17.59;100.00;100373.34;5018624;28;20033;-83
2022/10/19 10:24:09;;;;;;;57.88;38.38;;;;;;;17.68;100.00;100376.84;4991953;28;20045;-82
2022/10/19 10:26:43;;;;;;;56.58;38.95;;;;;;;17.72;100.00;100378.19;5006920;28;20034;-82
2022/10/19 10:29:33;;;;;;;51.08;35.15;;;;;;;17.78;100.00;100372.19;5022027;28;20046;-82
2022/10/19 10:32:11;;;;;;;51.13;35.20;;;;;;;17.83;100.00;100364.50;5017013;28;20132;-82
2022/10/19 10:34:43;;;;;;;47.65;35.83;;;;;;;17.93;100.00;100371.31;5017369;28;20073;-85
2022/10/19 10:37:27;;;;;;;49.65;36.55;;;;;;;17.97;100.00;100366.44;5024442;28;20072;-81
2022/10/19 10:39:55;;;;;;;56.00;34.80;;;;;;;18.07;100.00;100368.94;5004055;28;20114;-82
2022/10/19 10:42:33;;;;;;;51.65;35.80;;;;;;;18.11;100.00;100367.59;4988838;28;20045;-83
2022/10/19 10:44:59;;;;;;;53.45;36.88;;;;;;;18.18;100.00;100369.41;5002515;28;20056;-83
2022/10/19 10:47:27;;;;;;;53.55;37.22;;;;;;;18.26;100.00;100365.88;5018685;28;20236;-83
2022/10/19 10:49:59;;;;;;;54.80;37.03;;;;;;;18.38;100.00;100353.78;5022695;28;20044;-83
2022/10/19 10:52:29;;;;;;;52.90;37.92;;;;;;;18.49;100.00;100344.56;5020641;28;20029;-82
2022/10/19 10:55:07;;;;;;;58.75;38.72;;;;;;;18.55;100.00;100350.09;5015941;28;20049;-83
2022/10/19 10:57:37;;;;;;;61.83;40.20;;;;;;;18.62;100.00;100339.50;5014895;28;20038;-85
2022/10/19 11:00:12;;;;;;;61.65;41.08;;;;;;;18.70;100.00;100342.16;5017116;28;20026;-85
2022/10/19 11:03:11;;;;;;;59.45;38.20;;;;;;;18.75;100.00;100347.78;5019014;28;20038;-81
2022/10/19 11:06:08;;;;;;;61.85;40.95;;;;;;;18.87;100.00;100340.19;5025567;28;20482;-82
2022/10/19 11:08:49;;;;;;;61.58;39.55;;;;;;;18.95;100.00;100341.00;5001234;28;20065;-85
2022/10/19 11:11:29;;;;;;;60.03;41.47;;;;;;;19.01;100.00;100329.59;5018641;28;20037;-84
2022/10/19 11:14:21;;;;;;;63.53;41.75;;;;;;;19.09;100.00;100326.84;5018939;28;20482;-84